sensor_id;sensor_type;location;lat;lon;timestamp;pressure;altitude;pressure_sealevel;temperature;humidity
70544;BME280;58097;48.364;-1.224;2024-02-04T00:01:07;101380.06;;;9.49;100.00
70544;BME280;58097;48.364;-1.224;2024-02-04T00:03:32;101380.19;;;9.47;100.00
70544;BME280;58097;48.364;-1.224;2024-02-04T00:05:57;101387.59;;;9.47;100.00
70544;BME280;58097;48.364;-1.224;2024-02-04T00:08:22;101382.06;;;9.47;100.00
70544;BME280;58097;48.364;-1.224;2024-02-04T00:10:48;101393.09;;;9.47;100.00
70544;BME280;58097;48.364;-1.224;2024-02-04T00:13:13;101377.31;;;9.49;100.00
70544;BME280;58097;48.364;-1.224;2024-02-04T00:15:38;101377.31;;;9.49;100.00
70544;BME280;58097;48.364;-1.224;2024-02-04T00:18:03;101377.31;;;9.49;100.00
70544;BME280;58097;48.364;-1.224;2024-02-04T00:20:29;101385.47;;;9.50;100.00
70544;BME280;58097;48.364;-1.224;2024-02-04T00:22:57;101375.19;;;9.52;100.00
70544;BME280;58097;48.364;-1.224;2024-02-04T00:25:22;101374.44;;;9.50;100.00
70544;BME280;58097;48.364;-1.224;2024-02-04T00:27:48;101368.03;;;9.50;100.00
70544;BME280;58097;48.364;-1.224;2024-02-04T00:30:13;101367.38;;;9.46;100.00
70544;BME280;58097;48.364;-1.224;2024-02-04T00:32:39;101369.38;;;9.44;100.00
70544;BME280;58097;48.364;-1.224;2024-02-04T00:35:04;101368.50;;;9.44;100.00
70544;BME280;58097;48.364;-1.224;2024-02-04T00:37:29;101364.09;;;9.41;100.00
70544;BME280;58097;48.364;-1.224;2024-02-04T00:39:54;101364.09;;;9.41;100.00
70544;BME280;58097;48.364;-1.224;2024-02-04T00:42:19;101365.00;;;9.42;100.00
70544;BME280;58097;48.364;-1.224;2024-02-04T00:44:45;101370.50;;;9.42;100.00
70544;BME280;58097;48.364;-1.224;2024-02-04T00:47:10;101363.00;;;9.44;100.00
70544;BME280;58097;48.364;-1.224;2024-02-04T00:49:36;101372.03;;;9.46;100.00
70544;BME280;58097;48.364;-1.224;2024-02-04T00:52:01;101373.03;;;9.45;100.00
70544;BME280;58097;48.364;-1.224;2024-02-04T00:54:26;101373.78;;;9.47;100.00
70544;BME280;58097;48.364;-1.224;2024-02-04T00:56:51;101375.53;;;9.48;100.00
70544;BME280;58097;48.364;-1.224;2024-02-04T00:59:17;101369.16;;;9.47;100.00
70544;BME280;58097;48.364;-1.224;2024-02-04T01:01:42;101360.00;;;9.47;100.00
70544;BME280;58097;48.364;-1.224;2024-02-04T01:04:08;101356.34;;;9.46;100.00
70544;BME280;58097;48.364;-1.224;2024-02-04T01:06:33;101361.88;;;9.46;100.00
70544;BME280;58097;48.364;-1.224;2024-02-04T01:08:58;101350.94;;;9.45;100.00
70544;BME280;58097;48.364;-1.224;2024-02-04T01:11:23;101347.19;;;9.46;100.00
70544;BME280;58097;48.364;-1.224;2024-02-04T01:13:48;101334.28;;;9.46;100.00
70544;BME280;58097;48.364;-1.224;2024-02-04T01:16:14;101331.63;;;9.45;100.00
70544;BME280;58097;48.364;-1.224;2024-02-04T01:18:39;101317.72;;;9.46;100.00
70544;BME280;58097;48.364;-1.224;2024-02-04T01:21:04;101324.13;;;9.47;100.00
70544;BME280;58097;48.364;-1.224;2024-02-04T01:23:30;101317.84;;;9.45;100.00
70544;BME280;58097;48.364;-1.224;2024-02-04T01:25:55;101315.06;;;9.45;100.00
70544;BME280;58097;48.364;-1.224;2024-02-04T01:28:20;101317.97;;;9.43;100.00
70544;BME280;58097;48.364;-1.224;2024-02-04T01:30:45;101310.69;;;9.42;100.00
70544;BME280;58097;48.364;-1.224;2024-02-04T01:33:10;101318.09;;;9.42;100.00
70544;BME280;58097;48.364;-1.224;2024-02-04T01:35:36;101308.03;;;9.41;100.00
70544;BME280;58097;48.364;-1.224;2024-02-04T01:38:01;101303.41;;;9.41;100.00
70544;BME280;58097;48.364;-1.224;2024-02-04T01:40:26;101301.41;;;9.43;100.00
70544;BME280;58097;48.364;-1.224;2024-02-04T01:42:51;101296.75;;;9.44;100.00
70544;BME280;58097;48.364;-1.224;2024-02-04T01:45:17;101287.47;;;9.45;100.00
70544;BME280;58097;48.364;-1.224;2024-02-04T01:47:42;101290.88;;;9.48;100.00
70544;BME280;58097;48.364;-1.224;2024-02-04T01:50:07;101291.88;;;9.47;100.00
70544;BME280;58097;48.364;-1.224;2024-02-04T01:52:33;101291.13;;;9.45;100.00
70544;BME280;58097;48.364;-1.224;2024-02-04T01:55:00;101287.47;;;9.45;100.00
70544;BME280;58097;48.364;-1.224;2024-02-04T01:57:27;101277.44;;;9.44;100.00
70544;BME280;58097;48.364;-1.224;2024-02-04T01:59:52;101278.44;;;9.43;100.00
70544;BME280;58097;48.364;-1.224;2024-02-04T02:02:20;101282.22;;;9.42;100.00
70544;BME280;58097;48.364;-1.224;2024-02-04T02:04:45;101283.22;;;9.41;100.00
70544;BME280;58097;48.364;-1.224;2024-02-04T02:07:11;101278.81;;;9.38;100.00
70544;BME280;58097;48.364;-1.224;2024-02-04T02:09:37;101282.22;;;9.42;100.00
70544;BME280;58097;48.364;-1.224;2024-02-04T02:12:13;101290.47;;;9.42;100.00
70544;BME280;58097;48.364;-1.224;2024-02-04T02:14:41;101283.22;;;9.41;100.00
70544;BME280;58097;48.364;-1.224;2024-02-04T02:17:11;101287.47;;;9.45;100.00
70544;BME280;58097;48.364;-1.224;2024-02-04T02:20:02;101280.09;;;9.45;100.00
70544;BME280;58097;48.364;-1.224;2024-02-04T02:25:26;101289.88;;;9.49;100.00
70544;BME280;58097;48.364;-1.224;2024-02-04T02:27:51;101291.88;;;9.47;100.00
70544;BME280;58097;48.364;-1.224;2024-02-04T02:30:17;101282.84;;;9.45;100.00
70544;BME280;58097;48.364;-1.224;2024-02-04T02:32:43;101285.59;;;9.45;100.00
70544;BME280;58097;48.364;-1.224;2024-02-04T02:35:09;101285.59;;;9.45;100.00
70544;BME280;58097;48.364;-1.224;2024-02-04T02:42:31;101278.09;;;9.47;100.00
70544;BME280;58097;48.364;-1.224;2024-02-04T02:44:57;101277.19;;;9.47;100.00
70544;BME280;58097;48.364;-1.224;2024-02-04T02:47:22;101278.09;;;9.47;100.00
70544;BME280;58097;48.364;-1.224;2024-02-04T02:49:50;101283.47;;;9.49;100.00
70544;BME280;58097;48.364;-1.224;2024-02-04T02:52:16;101276.19;;;9.48;100.00
70544;BME280;58097;48.364;-1.224;2024-02-04T02:54:41;101260.75;;;9.45;100.00
70544;BME280;58097;48.364;-1.224;2024-02-04T02:57:06;101275.44;;;9.46;100.00
70544;BME280;58097;48.364;-1.224;2024-02-04T02:59:31;101274.56;;;9.45;100.00
70544;BME280;58097;48.364;-1.224;2024-02-04T03:01:57;101265.28;;;9.46;100.00
70544;BME280;58097;48.364;-1.224;2024-02-04T03:04:22;101259.88;;;9.45;100.00
70544;BME280;58097;48.364;-1.224;2024-02-04T03:06:47;101266.41;;;9.44;100.00
70544;BME280;58097;48.364;-1.224;2024-02-04T03:09:13;101260.00;;;9.43;100.00
70544;BME280;58097;48.364;-1.224;2024-02-04T03:11:38;101261.13;;;9.41;100.00
70544;BME280;58097;48.364;-1.224;2024-02-04T03:14:03;101266.66;;;9.41;100.00
70544;BME280;58097;48.364;-1.224;2024-02-04T03:16:28;101269.53;;;9.39;100.00
70544;BME280;58097;48.364;-1.224;2024-02-04T03:18:54;101263.25;;;9.37;100.00
70544;BME280;58097;48.364;-1.224;2024-02-04T03:21:19;101278.81;;;9.38;100.00
70544;BME280;58097;48.364;-1.224;2024-02-04T03:23:44;101267.03;;;9.36;100.00
70544;BME280;58097;48.364;-1.224;2024-02-04T03:26:10;101263.25;;;9.37;100.00
70544;BME280;58097;48.364;-1.224;2024-02-04T03:28:36;101262.50;;;9.35;100.00
70544;BME280;58097;48.364;-1.224;2024-02-04T03:31:01;101256.97;;;9.35;100.00
70544;BME280;58097;48.364;-1.224;2024-02-04T03:33:26;101258.88;;;9.35;100.00
70544;BME280;58097;48.364;-1.224;2024-02-04T03:35:52;101255.22;;;9.34;100.00
70544;BME280;58097;48.364;-1.224;2024-02-04T03:38:17;101253.59;;;9.31;100.00
70544;BME280;58097;48.364;-1.224;2024-02-04T03:40:42;101262.63;;;9.34;100.00
70544;BME280;58097;48.364;-1.224;2024-02-04T03:43:08;101254.34;;;9.34;100.00
70544;BME280;58097;48.364;-1.224;2024-02-04T03:45:33;101260.00;;;9.32;100.00
70544;BME280;58097;48.364;-1.224;2024-02-04T03:48:00;101263.50;;;9.34;100.00
70544;BME280;58097;48.364;-1.224;2024-02-04T03:50:25;101264.25;;;9.36;100.00
70544;BME280;58097;48.364;-1.224;2024-02-04T03:52:50;101265.25;;;9.35;100.00
70544;BME280;58097;48.364;-1.224;2024-02-04T03:55:15;101264.13;;;9.38;100.00
70544;BME280;58097;48.364;-1.224;2024-02-04T03:57:40;101265.03;;;9.38;100.00
70544;BME280;58097;48.364;-1.224;2024-02-04T04:00:08;101267.66;;;9.40;100.00
70544;BME280;58097;48.364;-1.224;2024-02-04T04:02:34;101267.66;;;9.40;100.00
70544;BME280;58097;48.364;-1.224;2024-02-04T04:04:59;101265.78;;;9.40;100.00
70544;BME280;58097;48.364;-1.224;2024-02-04T04:07:24;101271.16;;;9.42;100.00
70544;BME280;58097;48.364;-1.224;2024-02-04T04:09:49;101269.41;;;9.41;100.00
70544;BME280;58097;48.364;-1.224;2024-02-04T04:12:15;101259.25;;;9.41;100.00
70544;BME280;58097;48.364;-1.224;2024-02-04T04:14:40;101270.28;;;9.41;100.00
70544;BME280;58097;48.364;-1.224;2024-02-04T04:17:05;101257.50;;;9.40;100.00
70544;BME280;58097;48.364;-1.224;2024-02-04T04:19:30;101251.97;;;9.40;100.00
70544;BME280;58097;48.364;-1.224;2024-02-04T04:21:58;101250.22;;;9.39;100.00
70544;BME280;58097;48.364;-1.224;2024-02-04T04:24:24;101252.22;;;9.37;100.00
70544;BME280;58097;48.364;-1.224;2024-02-04T04:26:49;101250.47;;;9.36;100.00
70544;BME280;58097;48.364;-1.224;2024-02-04T04:29:15;101247.59;;;9.38;100.00
70544;BME280;58097;48.364;-1.224;2024-02-04T04:31:40;101253.47;;;9.33;100.00
70544;BME280;58097;48.364;-1.224;2024-02-04T04:34:05;101261.13;;;9.29;100.00
70544;BME280;58097;48.364;-1.224;2024-02-04T04:36:30;101252.72;;;9.31;100.00
70544;BME280;58097;48.364;-1.224;2024-02-04T04:38:56;101233.66;;;9.28;100.00
70544;BME280;58097;48.364;-1.224;2024-02-04T04:41:21;101239.91;;;9.30;100.00
70544;BME280;58097;48.364;-1.224;2024-02-04T04:43:46;101228.13;;;9.28;100.00
70544;BME280;58097;48.364;-1.224;2024-02-04T04:46:11;101230.00;;;9.27;100.00
70544;BME280;58097;48.364;-1.224;2024-02-04T04:48:36;101224.63;;;9.26;100.00
70544;BME280;58097;48.364;-1.224;2024-02-04T04:51:02;101230.00;;;9.27;100.00
70544;BME280;58097;48.364;-1.224;2024-02-04T04:53:27;101225.50;;;9.26;100.00
70544;BME280;58097;48.364;-1.224;2024-02-04T04:55:52;101230.13;;;9.26;100.00
70544;BME280;58097;48.364;-1.224;2024-02-04T04:58:17;101233.84;;;9.25;100.00
70544;BME280;58097;48.364;-1.224;2024-02-04T05:00:43;101243.25;;;9.22;100.00
70544;BME280;58097;48.364;-1.224;2024-02-04T05:03:08;101238.75;;;9.21;100.00
70544;BME280;58097;48.364;-1.224;2024-02-04T05:05:33;101251.66;;;9.21;100.00
70544;BME280;58097;48.364;-1.224;2024-02-04T05:07:58;101250.78;;;9.20;100.00
70544;BME280;58097;48.364;-1.224;2024-02-04T05:10:23;101252.53;;;9.21;100.00
70544;BME280;58097;48.364;-1.224;2024-02-04T05:12:49;101249.78;;;9.21;100.00
70544;BME280;58097;48.364;-1.224;2024-02-04T05:15:15;101253.16;;;9.25;100.00
70544;BME280;58097;48.364;-1.224;2024-02-04T05:17:40;101246.69;;;9.26;100.00
70544;BME280;58097;48.364;-1.224;2024-02-04T05:20:05;101242.94;;;9.27;100.00
70544;BME280;58097;48.364;-1.224;2024-02-04T05:22:32;101243.94;;;9.26;100.00
70544;BME280;58097;48.364;-1.224;2024-02-04T05:24:57;101237.41;;;9.27;100.00
70544;BME280;58097;48.364;-1.224;2024-02-04T05:27:23;101241.16;;;9.26;100.00
70544;BME280;58097;48.364;-1.224;2024-02-04T05:29:48;101231.09;;;9.25;100.00
70544;BME280;58097;48.364;-1.224;2024-02-04T05:32:14;101230.13;;;9.26;100.00
70544;BME280;58097;48.364;-1.224;2024-02-04T05:34:39;101246.78;;;9.24;100.00
70544;BME280;58097;48.364;-1.224;2024-02-04T05:37:04;101232.09;;;9.24;100.00
70544;BME280;58097;48.364;-1.224;2024-02-04T05:39:30;101242.13;;;9.25;100.00
70544;BME280;58097;48.364;-1.224;2024-02-04T05:41:55;101240.38;;;9.24;100.00
70544;BME280;58097;48.364;-1.224;2024-02-04T05:44:20;101236.75;;;9.23;100.00
70544;BME280;58097;48.364;-1.224;2024-02-04T05:46:45;101246.00;;;9.22;100.00
70544;BME280;58097;48.364;-1.224;2024-02-04T05:49:11;101244.13;;;9.23;100.00
70544;BME280;58097;48.364;-1.224;2024-02-04T05:51:39;101250.66;;;9.22;100.00
70544;BME280;58097;48.364;-1.224;2024-02-04T05:54:05;101252.66;;;9.20;100.00
70544;BME280;58097;48.364;-1.224;2024-02-04T05:56:30;101248.13;;;9.19;100.00
70544;BME280;58097;48.364;-1.224;2024-02-04T05:58:55;101249.91;;;9.20;100.00
70544;BME280;58097;48.364;-1.224;2024-02-04T06:01:21;101249.91;;;9.20;100.00
70544;BME280;58097;48.364;-1.224;2024-02-04T06:03:46;101248.91;;;9.21;100.00
70544;BME280;58097;48.364;-1.224;2024-02-04T06:06:14;101256.16;;;9.22;100.00
70544;BME280;58097;48.364;-1.224;2024-02-04T06:08:40;101247.91;;;9.22;100.00
70544;BME280;58097;48.364;-1.224;2024-02-04T06:11:09;101251.53;;;9.22;100.00
70544;BME280;58097;48.364;-1.224;2024-02-04T06:13:34;101254.16;;;9.24;100.00
70544;BME280;58097;48.364;-1.224;2024-02-04T06:15:59;101256.06;;;9.23;100.00
70544;BME280;58097;48.364;-1.224;2024-02-04T06:18:24;101247.91;;;9.22;100.00
70544;BME280;58097;48.364;-1.224;2024-02-04T06:20:49;101248.78;;;9.22;100.00
70544;BME280;58097;48.364;-1.224;2024-02-04T06:23:15;101235.09;;;9.21;100.00
70544;BME280;58097;48.364;-1.224;2024-02-04T06:25:40;101231.59;;;9.19;100.00
70544;BME280;58097;48.364;-1.224;2024-02-04T06:28:05;101239.88;;;9.19;100.00
70544;BME280;58097;48.364;-1.224;2024-02-04T06:30:31;101239.09;;;9.17;100.00
70544;BME280;58097;48.364;-1.224;2024-02-04T06:32:57;101243.00;;;9.14;100.00
70544;BME280;58097;48.364;-1.224;2024-02-04T06:35:22;101252.13;;;9.15;100.00
70544;BME280;58097;48.364;-1.224;2024-02-04T06:37:47;101248.38;;;9.16;100.00
70544;BME280;58097;48.364;-1.224;2024-02-04T06:40:12;101249.25;;;9.16;100.00
70544;BME280;58097;48.364;-1.224;2024-02-04T06:42:38;101249.13;;;9.18;100.00
70544;BME280;58097;48.364;-1.224;2024-02-04T06:45:03;101251.03;;;9.17;100.00
70544;BME280;58097;48.364;-1.224;2024-02-04T06:47:28;101260.28;;;9.16;100.00
70544;BME280;58097;48.364;-1.224;2024-02-04T06:49:54;101255.03;;;9.13;100.00
70544;BME280;58097;48.364;-1.224;2024-02-04T06:52:19;101265.28;;;9.11;100.00
70544;BME280;58097;48.364;-1.224;2024-02-04T06:54:44;101255.16;;;9.12;100.00
70544;BME280;58097;48.364;-1.224;2024-02-04T06:57:09;101250.75;;;9.09;100.00
70544;BME280;58097;48.364;-1.224;2024-02-04T06:59:35;101251.75;;;9.08;100.00
70544;BME280;58097;48.364;-1.224;2024-02-04T07:02:00;101253.50;;;9.09;100.00
70544;BME280;58097;48.364;-1.224;2024-02-04T07:04:25;101261.91;;;9.08;100.00
70544;BME280;58097;48.364;-1.224;2024-02-04T07:06:50;101259.25;;;9.06;100.00
70544;BME280;58097;48.364;-1.224;2024-02-04T07:09:16;101252.75;;;9.07;100.00
70544;BME280;58097;48.364;-1.224;2024-02-04T07:11:42;101249.00;;;9.08;100.00
70544;BME280;58097;48.364;-1.224;2024-02-04T07:14:07;101250.88;;;9.08;100.00
70544;BME280;58097;48.364;-1.224;2024-02-04T07:16:33;101239.84;;;9.08;100.00
70544;BME280;58097;48.364;-1.224;2024-02-04T07:18:58;101247.22;;;9.07;100.00
70544;BME280;58097;48.364;-1.224;2024-02-04T07:21:24;101237.19;;;9.06;100.00
70544;BME280;58097;48.364;-1.224;2024-02-04T07:23:49;101242.84;;;9.05;100.00
70544;BME280;58097;48.364;-1.224;2024-02-04T07:26:14;101243.19;;;9.00;100.00
70544;BME280;58097;48.364;-1.224;2024-02-04T07:28:39;101248.84;;;8.98;100.00
70544;BME280;58097;48.364;-1.224;2024-02-04T07:31:05;101248.06;;;8.96;100.00
70544;BME280;58097;48.364;-1.224;2024-02-04T07:33:30;101251.72;;;8.97;100.00
70544;BME280;58097;48.364;-1.224;2024-02-04T07:35:55;101248.16;;;8.95;100.00
70544;BME280;58097;48.364;-1.224;2024-02-04T07:38:20;101253.69;;;8.95;100.00
70544;BME280;58097;48.364;-1.224;2024-02-04T07:40:45;101254.56;;;8.95;100.00
70544;BME280;58097;48.364;-1.224;2024-02-04T07:43:11;101257.22;;;8.97;100.00
70544;BME280;58097;48.364;-1.224;2024-02-04T07:45:36;101259.09;;;8.96;100.00
70544;BME280;58097;48.364;-1.224;2024-02-04T07:48:01;101252.78;;;8.94;100.00
70544;BME280;58097;48.364;-1.224;2024-02-04T07:50:27;101262.94;;;8.94;100.00
70544;BME280;58097;48.364;-1.224;2024-02-04T07:52:52;101255.56;;;8.94;100.00
70544;BME280;58097;48.364;-1.224;2024-02-04T07:55:18;101255.69;;;8.93;100.00
70544;BME280;58097;48.364;-1.224;2024-02-04T07:57:43;101265.59;;;8.95;100.00
70544;BME280;58097;48.364;-1.224;2024-02-04T08:00:08;101261.88;;;8.96;100.00
70544;BME280;58097;48.364;-1.224;2024-02-04T08:02:36;101268.25;;;8.97;100.00
70544;BME280;58097;48.364;-1.224;2024-02-04T08:05:04;101268.25;;;8.97;100.00
70544;BME280;58097;48.364;-1.224;2024-02-04T08:07:30;101265.25;;;9.00;100.00
70544;BME280;58097;48.364;-1.224;2024-02-04T08:09:55;101269.66;;;9.03;100.00
70544;BME280;58097;48.364;-1.224;2024-02-04T08:12:21;101267.66;;;9.05;100.00
70544;BME280;58097;48.364;-1.224;2024-02-04T08:14:46;101272.41;;;9.03;100.00
70544;BME280;58097;48.364;-1.224;2024-02-04T08:17:11;101269.91;;;8.99;100.00
70544;BME280;58097;48.364;-1.224;2024-02-04T08:19:37;101271.97;;;8.96;100.00
70544;BME280;58097;48.364;-1.224;2024-02-04T08:22:02;101274.84;;;8.94;100.00
70544;BME280;58097;48.364;-1.224;2024-02-04T08:24:27;101279.38;;;8.95;100.00
70544;BME280;58097;48.364;-1.224;2024-02-04T08:26:54;101273.78;;;8.97;100.00
70544;BME280;58097;48.364;-1.224;2024-02-04T08:29:19;101278.16;;;8.99;100.00
70544;BME280;58097;48.364;-1.224;2024-02-04T08:31:45;101283.44;;;9.03;100.00
70544;BME280;58097;48.364;-1.224;2024-02-04T08:34:10;101281.44;;;9.05;100.00
70544;BME280;58097;48.364;-1.224;2024-02-04T08:36:35;101289.47;;;9.08;100.00
70544;BME280;58097;48.364;-1.224;2024-02-04T08:39:01;101290.34;;;9.08;100.00
70544;BME280;58097;48.364;-1.224;2024-02-04T08:41:26;101284.59;;;9.11;100.00
70544;BME280;58097;48.364;-1.224;2024-02-04T08:43:51;101276.22;;;9.13;100.00
70544;BME280;58097;48.364;-1.224;2024-02-04T08:46:16;101279.97;;;9.12;100.00
70544;BME280;58097;48.364;-1.224;2024-02-04T08:48:41;101279.22;;;9.10;100.00
70544;BME280;58097;48.364;-1.224;2024-02-04T08:51:11;101276.44;;;9.10;100.00
70544;BME280;58097;48.364;-1.224;2024-02-04T08:53:37;101281.84;;;9.11;100.00
70544;BME280;58097;48.364;-1.224;2024-02-04T08:56:02;101279.72;;;9.15;100.00
70544;BME280;58097;48.364;-1.224;2024-02-04T08:58:27;101276.72;;;9.18;100.00
70544;BME280;58097;48.364;-1.224;2024-02-04T09:00:52;101277.59;;;9.18;100.00
70544;BME280;58097;48.364;-1.224;2024-02-04T09:03:18;101273.97;;;9.18;100.00
70544;BME280;58097;48.364;-1.224;2024-02-04T09:05:43;101284.75;;;9.21;100.00
70544;BME280;58097;48.364;-1.224;2024-02-04T09:08:08;101288.50;;;9.20;100.00
70544;BME280;58097;48.364;-1.224;2024-02-04T09:10:33;101283.25;;;9.17;100.00
70544;BME280;58097;48.364;-1.224;2024-02-04T09:12:58;101279.47;;;9.18;100.00
70544;BME280;58097;48.364;-1.224;2024-02-04T09:15:24;101284.13;;;9.17;100.00
70544;BME280;58097;48.364;-1.224;2024-02-04T09:17:49;101282.25;;;9.18;100.00
70544;BME280;58097;48.364;-1.224;2024-02-04T09:20:14;101271.97;;;9.20;100.00
70544;BME280;58097;48.364;-1.224;2024-02-04T09:22:40;101280.00;;;9.23;100.00
70544;BME280;58097;48.364;-1.224;2024-02-04T09:25:05;101282.31;;;9.29;100.00
70544;BME280;58097;48.364;-1.224;2024-02-04T09:27:30;101288.47;;;9.32;100.00
70544;BME280;58097;48.364;-1.224;2024-02-04T09:29:56;101285.34;;;9.37;100.00
70544;BME280;58097;48.364;-1.224;2024-02-04T09:32:21;101288.09;;;9.37;100.00
70544;BME280;58097;48.364;-1.224;2024-02-04T09:34:46;101285.34;;;9.37;100.00
70544;BME280;58097;48.364;-1.224;2024-02-04T09:37:12;101282.22;;;9.42;100.00
70544;BME280;58097;48.364;-1.224;2024-02-04T09:39:37;101288.25;;;9.47;100.00
70544;BME280;58097;48.364;-1.224;2024-02-04T09:42:02;101281.22;;;9.54;100.00
70544;BME280;58097;48.364;-1.224;2024-02-04T09:44:28;101277.88;;;9.61;100.00
70544;BME280;58097;48.364;-1.224;2024-02-04T09:46:53;101279.38;;;9.66;100.00
70544;BME280;58097;48.364;-1.224;2024-02-04T09:49:19;101277.38;;;9.68;100.00
70544;BME280;58097;48.364;-1.224;2024-02-04T09:51:44;101274.50;;;9.69;100.00
70544;BME280;58097;48.364;-1.224;2024-02-04T09:54:10;101279.16;;;9.69;100.00
70544;BME280;58097;48.364;-1.224;2024-02-04T09:56:35;101277.38;;;9.68;100.00
70544;BME280;58097;48.364;-1.224;2024-02-04T09:59:02;101276.75;;;9.64;100.00
70544;BME280;58097;48.364;-1.224;2024-02-04T10:01:27;101279.00;;;9.59;100.00
70544;BME280;58097;48.364;-1.224;2024-02-04T10:03:53;101274.50;;;9.58;100.00
70544;BME280;58097;48.364;-1.224;2024-02-04T10:06:18;101275.50;;;9.57;100.00
70544;BME280;58097;48.364;-1.224;2024-02-04T10:08:44;101271.84;;;9.56;100.00
70544;BME280;58097;48.364;-1.224;2024-02-04T10:11:11;101275.63;;;9.55;100.00
70544;BME280;58097;48.364;-1.224;2024-02-04T10:13:46;101270.84;;;9.57;100.00
70544;BME280;58097;48.364;-1.224;2024-02-04T10:16:14;101279.13;;;9.57;100.00
70544;BME280;58097;48.364;-1.224;2024-02-04T10:18:43;101280.00;;;9.58;100.00
70544;BME280;58097;48.364;-1.224;2024-02-04T10:21:18;101284.66;;;9.57;100.00
70544;BME280;58097;48.364;-1.224;2024-02-04T10:23:44;101279.13;;;9.57;100.00
70544;BME280;58097;48.364;-1.224;2024-02-04T10:26:10;101280.00;;;9.58;100.00
70544;BME280;58097;48.364;-1.224;2024-02-04T10:28:35;101284.41;;;9.60;100.00
70544;BME280;58097;48.364;-1.224;2024-02-04T10:31:01;101278.75;;;9.62;100.00
70544;BME280;58097;48.364;-1.224;2024-02-04T10:33:26;101283.16;;;9.65;100.00
70544;BME280;58097;48.364;-1.224;2024-02-04T10:35:54;101284.16;;;9.63;100.00
70544;BME280;58097;48.364;-1.224;2024-02-04T10:38:20;101283.16;;;9.65;100.00
70544;BME280;58097;48.364;-1.224;2024-02-04T10:40:45;101280.53;;;9.63;100.00
70544;BME280;58097;48.364;-1.224;2024-02-04T10:43:11;101289.69;;;9.63;100.00
70544;BME280;58097;48.364;-1.224;2024-02-04T10:45:37;101286.78;;;9.65;100.00
70544;BME280;58097;48.364;-1.224;2024-02-04T10:48:04;101294.19;;;9.65;100.00
70544;BME280;58097;48.364;-1.224;2024-02-04T10:50:30;101292.19;;;9.67;100.00
70544;BME280;58097;48.364;-1.224;2024-02-04T10:52:58;101292.19;;;9.67;100.00
70544;BME280;58097;48.364;-1.224;2024-02-04T10:55:29;101303.22;;;9.67;100.00
70544;BME280;58097;48.364;-1.224;2024-02-04T10:57:55;101292.06;;;9.68;100.00
70544;BME280;58097;48.364;-1.224;2024-02-04T11:00:21;101293.06;;;9.67;100.00
70544;BME280;58097;48.364;-1.224;2024-02-04T11:02:46;101294.06;;;9.66;100.00
70544;BME280;58097;48.364;-1.224;2024-02-04T11:05:14;101297.97;;;9.63;100.00
70544;BME280;58097;48.364;-1.224;2024-02-04T11:07:41;101294.31;;;9.63;100.00
70544;BME280;58097;48.364;-1.224;2024-02-04T11:10:08;101293.19;;;9.66;100.00
70544;BME280;58097;48.364;-1.224;2024-02-04T11:12:35;101292.06;;;9.68;100.00
70544;BME280;58097;48.364;-1.224;2024-02-04T11:15:03;101291.06;;;9.69;100.00
70544;BME280;58097;48.364;-1.224;2024-02-04T11:27:19;101289.72;;;9.86;100.00
70544;BME280;58097;48.364;-1.224;2024-02-04T11:29:45;101289.22;;;9.92;100.00
70544;BME280;58097;48.364;-1.224;2024-02-04T11:32:10;101277.94;;;9.95;100.00
70544;BME280;58097;48.364;-1.224;2024-02-04T11:34:36;101285.97;;;9.98;100.00
70544;BME280;58097;48.364;-1.224;2024-02-04T11:37:01;101282.94;;;10.01;100.00
70544;BME280;58097;48.364;-1.224;2024-02-04T11:39:26;101279.81;;;10.06;100.00
70544;BME280;58097;48.364;-1.224;2024-02-04T11:41:52;101280.56;;;10.08;100.00
70544;BME280;58097;48.364;-1.224;2024-02-04T11:44:22;101280.22;;;10.12;100.00
70544;BME280;58097;48.364;-1.224;2024-02-04T11:46:47;101285.75;;;10.12;100.00
70544;BME280;58097;48.364;-1.224;2024-02-04T11:49:19;101277.47;;;10.12;100.00
70544;BME280;58097;48.364;-1.224;2024-02-04T11:51:45;101273.03;;;10.10;100.00
70544;BME280;58097;48.364;-1.224;2024-02-04T11:54:11;101259.22;;;10.10;100.00
70544;BME280;58097;48.364;-1.224;2024-02-04T11:56:38;101263.66;;;10.12;100.00
70544;BME280;58097;48.364;-1.224;2024-02-04T11:59:04;101256.97;;;10.15;100.00
70544;BME280;58097;48.364;-1.224;2024-02-04T12:01:31;101256.47;;;10.10;100.00
70544;BME280;58097;48.364;-1.224;2024-02-04T12:03:56;101249.81;;;10.12;100.00
70544;BME280;58097;48.364;-1.224;2024-02-04T12:06:22;101247.66;;;10.05;100.00
70544;BME280;58097;48.364;-1.224;2024-02-04T12:08:47;101254.31;;;10.02;100.00
70544;BME280;58097;48.364;-1.224;2024-02-04T12:11:12;101251.31;;;10.05;100.00
70544;BME280;58097;48.364;-1.224;2024-02-04T12:13:38;101249.31;;;10.07;100.00
70544;BME280;58097;48.364;-1.224;2024-02-04T12:16:05;101239.25;;;10.06;100.00
70544;BME280;58097;48.364;-1.224;2024-02-04T12:18:31;101249.03;;;10.10;100.00
70544;BME280;58097;48.364;-1.224;2024-02-04T12:20:56;101243.16;;;10.15;100.00
70544;BME280;58097;48.364;-1.224;2024-02-04T12:23:22;101245.81;;;10.16;100.00
70544;BME280;58097;48.364;-1.224;2024-02-04T12:25:48;101242.03;;;10.17;100.00
70544;BME280;58097;48.364;-1.224;2024-02-04T12:28:14;101240.91;;;10.20;100.00
70544;BME280;58097;48.364;-1.224;2024-02-04T12:30:39;101243.78;;;10.18;100.00
70544;BME280;58097;48.364;-1.224;2024-02-04T12:33:05;101236.78;;;10.14;100.00
70544;BME280;58097;48.364;-1.224;2024-02-04T12:35:31;101238.53;;;10.15;100.00
70544;BME280;58097;48.364;-1.224;2024-02-04T12:37:57;101231.25;;;10.14;100.00
70544;BME280;58097;48.364;-1.224;2024-02-04T12:40:23;101235.75;;;10.15;100.00
70544;BME280;58097;48.364;-1.224;2024-02-04T12:42:55;101233.13;;;10.14;100.00
70544;BME280;58097;48.364;-1.224;2024-02-04T12:45:24;101228.69;;;10.11;100.00
70544;BME280;58097;48.364;-1.224;2024-02-04T12:47:50;101225.84;;;10.13;100.00